Time;durP1;ratioP1;P1;durP2;ratioP2;P2;SDS_P1;SDS_P2;PMS_P1;PMS_P2;Temp;Humidity;BMP_temperature;BMP_pressure;BME280_temperature;BME280_humidity;BME280_pressure;Samples;Min_cycle;Max_cycle;Signal;HPM_P1;HPM_P2
2023/12/08 00:00:45;;;;;;;7.03;2.30;;;4.20;99.90;;;;;;5071915;28;20499;-54
2023/12/08 00:03:12;;;;;;;5.50;2.08;;;4.20;99.90;;;;;;5072073;28;20036;-57
2023/12/08 00:05:37;;;;;;;4.37;1.90;;;4.30;99.90;;;;;;5071945;28;20040;-57
2023/12/08 00:08:03;;;;;;;5.20;2.30;;;4.20;99.90;;;;;;5072047;28;20682;-56
2023/12/08 00:10:29;;;;;;;3.27;1.70;;;4.20;99.90;;;;;;5071793;28;20078;-54
2023/12/08 00:12:54;;;;;;;6.13;2.47;;;4.20;99.90;;;;;;5071932;28;20032;-57
2023/12/08 00:15:20;;;;;;;3.67;1.70;;;4.10;99.90;;;;;;5071789;28;20397;-57
2023/12/08 00:17:45;;;;;;;3.10;1.07;;;4.20;99.90;;;;;;5071890;28;20031;-57
2023/12/08 00:20:11;;;;;;;5.37;1.90;;;4.20;99.90;;;;;;5071667;28;20036;-56
2023/12/08 00:22:37;;;;;;;6.30;2.40;;;4.10;99.90;;;;;;5071924;28;20550;-56
2023/12/08 00:25:03;;;;;;;3.57;2.03;;;4.10;99.90;;;;;;5071736;28;20028;-57
2023/12/08 00:27:28;;;;;;;4.23;2.20;;;4.10;99.90;;;;;;5071813;28;20032;-56
2023/12/08 00:29:54;;;;;;;4.27;2.00;;;4.00;99.90;;;;;;5071631;28;20055;-55
2023/12/08 00:32:20;;;;;;;4.63;2.33;;;4.00;99.90;;;;;;5071713;28;20032;-55
2023/12/08 00:34:46;;;;;;;3.47;1.47;;;4.00;99.90;;;;;;5071738;28;20128;-57
2023/12/08 00:37:12;;;;;;;4.03;2.20;;;4.00;99.90;;;;;;5071601;28;20119;-57
2023/12/08 00:39:39;;;;;;;4.70;2.10;;;4.00;99.90;;;;;;5071526;28;20433;-56
2023/12/08 00:42:04;;;;;;;6.87;2.80;;;4.00;99.90;;;;;;5071688;28;20162;-53
2023/12/08 00:44:30;;;;;;;5.93;2.33;;;4.00;99.90;;;;;;5071722;28;20474;-56
2023/12/08 00:46:55;;;;;;;4.30;2.10;;;3.90;99.90;;;;;;5071638;28;20097;-55
2023/12/08 00:49:21;;;;;;;4.93;2.10;;;3.90;99.90;;;;;;5073672;28;20058;-55
2023/12/08 00:51:46;;;;;;;6.07;2.67;;;4.00;99.90;;;;;;5075900;28;20060;-53
2023/12/08 00:54:13;;;;;;;4.57;2.40;;;3.90;99.90;;;;;;5075929;28;20401;-53
2023/12/08 00:56:39;;;;;;;4.03;1.40;;;4.00;99.90;;;;;;5075473;28;20044;-52
2023/12/08 00:59:05;;;;;;;4.90;2.83;;;3.90;99.90;;;;;;5076084;28;20025;-56
2023/12/08 01:01:30;;;;;;;7.83;2.43;;;3.90;99.90;;;;;;5075912;28;20036;-52
2023/12/08 01:03:56;;;;;;;3.53;2.10;;;3.90;99.90;;;;;;5076145;28;20374;-52
2023/12/08 01:06:22;;;;;;;6.47;2.70;;;3.90;99.90;;;;;;5076092;28;20029;-52
2023/12/08 01:08:48;;;;;;;7.57;3.50;;;4.00;99.90;;;;;;5075663;28;20079;-55
2023/12/08 01:11:14;;;;;;;3.30;1.53;;;3.90;99.90;;;;;;5075902;28;20068;-52
2023/12/08 01:13:39;;;;;;;5.93;2.57;;;4.00;99.90;;;;;;5076448;28;20035;-52
2023/12/08 01:16:06;;;;;;;6.50;3.03;;;4.00;99.90;;;;;;5076277;28;20036;-53
2023/12/08 01:18:33;;;;;;;7.07;3.07;;;4.00;99.90;;;;;;5075007;28;20032;-54
2023/12/08 01:20:58;;;;;;;6.57;2.57;;;4.00;99.90;;;;;;5075036;28;20097;-55
2023/12/08 01:23:24;;;;;;;8.40;3.20;;;4.00;99.90;;;;;;5074918;28;20040;-56
2023/12/08 01:25:49;;;;;;;3.43;1.67;;;4.10;99.90;;;;;;5074794;28;20401;-56
2023/12/08 01:28:15;;;;;;;4.27;2.57;;;4.10;99.90;;;;;;5074814;28;20074;-56
2023/12/08 01:30:41;;;;;;;7.50;3.60;;;4.10;99.90;;;;;;5074752;28;20028;-56
2023/12/08 01:33:06;;;;;;;6.07;2.60;;;4.00;99.90;;;;;;5074737;28;20041;-55
2023/12/08 01:35:32;;;;;;;8.17;3.33;;;4.00;99.90;;;;;;5075092;28;20039;-56
2023/12/08 01:37:57;;;;;;;4.93;2.67;;;4.00;99.90;;;;;;5074615;28;20033;-54
2023/12/08 01:40:23;;;;;;;4.90;2.13;;;4.10;99.90;;;;;;5074516;28;20024;-56
2023/12/08 01:42:49;;;;;;;5.70;3.10;;;4.10;99.90;;;;;;5074636;28;20028;-56
2023/12/08 01:45:14;;;;;;;8.50;3.50;;;4.10;99.90;;;;;;5074450;28;20454;-55
2023/12/08 01:47:41;;;;;;;6.73;2.80;;;4.00;99.90;;;;;;5074372;28;20038;-57
2023/12/08 01:50:09;;;;;;;8.40;3.17;;;4.00;99.90;;;;;;5074405;28;20122;-56
2023/12/08 01:52:36;;;;;;;5.37;2.73;;;4.00;99.90;;;;;;5074402;28;20095;-56
2023/12/08 01:55:02;;;;;;;10.10;3.20;;;4.00;99.90;;;;;;5074527;28;20567;-53
2023/12/08 01:57:28;;;;;;;9.87;3.07;;;4.00;99.90;;;;;;5074346;28;20443;-54
2023/12/08 01:59:55;;;;;;;7.17;3.00;;;4.10;99.90;;;;;;5073726;28;20040;-55
2023/12/08 02:02:21;;;;;;;7.67;3.17;;;4.00;99.90;;;;;;5073749;28;20036;-52
2023/12/08 02:04:49;;;;;;;8.27;3.50;;;4.00;99.90;;;;;;5074204;28;20098;-55
2023/12/08 02:07:15;;;;;;;6.27;2.47;;;4.00;99.90;;;;;;5074105;28;20040;-55
2023/12/08 02:09:41;;;;;;;7.97;2.73;;;4.00;99.90;;;;;;5074036;28;20082;-52
2023/12/08 02:12:08;;;;;;;6.33;2.57;;;3.90;99.90;;;;;;5074000;28;20068;-52
2023/12/08 02:14:33;;;;;;;8.47;3.20;;;3.90;99.90;;;;;;5074461;28;20067;-54
2023/12/08 02:17:16;;;;;;;6.13;2.93;;;3.90;99.90;;;;;;5073892;28;20052;-55
2023/12/08 02:19:42;;;;;;;7.37;3.33;;;3.90;99.90;;;;;;5073891;28;20489;-52
2023/12/08 02:22:08;;;;;;;7.30;3.47;;;3.90;99.90;;;;;;5074039;28;20072;-55
2023/12/08 02:24:33;;;;;;;8.47;2.80;;;3.90;99.90;;;;;;5073848;28;20099;-56
2023/12/08 02:26:59;;;;;;;6.03;2.47;;;3.90;99.90;;;;;;5073666;28;20032;-56
2023/12/08 02:29:25;;;;;;;6.83;2.30;;;3.90;99.90;;;;;;5073569;28;20052;-56
2023/12/08 02:32:07;;;;;;;10.80;3.33;;;3.90;99.90;;;;;;5073586;28;20043;-56
2023/12/08 02:34:34;;;;;;;5.37;2.47;;;3.90;99.90;;;;;;5073667;28;20488;-56
2023/12/08 02:37:03;;;;;;;6.90;3.13;;;3.90;99.90;;;;;;5073518;28;20028;-56
2023/12/08 02:39:30;;;;;;;9.85;3.63;;;3.80;99.90;;;;;;5073377;28;20036;-56
2023/12/08 02:41:56;;;;;;;8.47;3.40;;;3.90;99.90;;;;;;5073338;28;20069;-55
2023/12/08 02:44:22;;;;;;;11.07;3.90;;;3.80;99.90;;;;;;5073542;28;20435;-56
2023/12/08 02:46:47;;;;;;;8.50;3.90;;;3.70;99.90;;;;;;5073261;28;20112;-56
2023/12/08 02:49:13;;;;;;;8.93;3.63;;;3.60;99.90;;;;;;5071972;28;20032;-56
2023/12/08 02:51:39;;;;;;;8.20;3.30;;;3.50;99.90;;;;;;5073124;28;20157;-55
2023/12/08 02:54:04;;;;;;;9.83;3.70;;;3.40;99.90;;;;;;5073257;28;20102;-55
2023/12/08 02:56:30;;;;;;;8.50;3.93;;;3.30;99.90;;;;;;5073033;28;20040;-56
2023/12/08 02:58:56;;;;;;;9.63;3.73;;;3.30;99.90;;;;;;5073030;28;20028;-56
2023/12/08 03:01:21;;;;;;;8.27;3.93;;;3.20;99.90;;;;;;5071743;28;20033;-56
2023/12/08 03:03:47;;;;;;;9.90;4.40;;;3.20;99.90;;;;;;5072913;28;20036;-56
2023/12/08 03:06:12;;;;;;;7.57;3.43;;;3.20;99.90;;;;;;5072890;28;20028;-55
2023/12/08 03:08:38;;;;;;;10.47;4.23;;;3.10;99.90;;;;;;5072770;28;20028;-51
2023/12/08 03:11:04;;;;;;;8.70;3.70;;;3.10;99.90;;;;;;5072901;28;20393;-56
2023/12/08 03:13:30;;;;;;;11.77;4.47;;;3.10;99.90;;;;;;5072607;28;20473;-55
2023/12/08 03:15:55;;;;;;;9.87;3.57;;;3.00;99.90;;;;;;5072674;28;20074;-56
2023/12/08 03:18:21;;;;;;;9.50;3.93;;;3.00;99.90;;;;;;5072622;28;20446;-56
2023/12/08 03:20:47;;;;;;;10.73;3.97;;;3.10;99.90;;;;;;5072550;28;20481;-56
2023/12/08 03:23:12;;;;;;;8.13;4.10;;;3.00;99.90;;;;;;5072637;28;20028;-56
2023/12/08 03:25:38;;;;;;;7.70;3.27;;;3.00;99.90;;;;;;5072492;28;20081;-55
2023/12/08 03:28:04;;;;;;;10.90;3.87;;;3.00;99.90;;;;;;5072557;28;20434;-57
2023/12/08 03:30:29;;;;;;;10.00;4.33;;;2.90;99.90;;;;;;5072494;28;20036;-56
2023/12/08 03:32:55;;;;;;;11.37;4.37;;;2.90;99.90;;;;;;5072552;28;20109;-56
2023/12/08 03:35:20;;;;;;;10.17;4.23;;;2.90;99.90;;;;;;5072318;28;20400;-56
2023/12/08 03:37:46;;;;;;;8.13;3.50;;;2.90;99.90;;;;;;5072274;28;20123;-57
2023/12/08 03:40:12;;;;;;;11.37;4.20;;;2.90;99.90;;;;;;5072269;28;20039;-55
2023/12/08 03:42:38;;;;;;;9.43;3.57;;;2.90;99.90;;;;;;5071225;28;20504;-57
2023/12/08 03:45:04;;;;;;;11.37;3.83;;;2.90;99.90;;;;;;5072201;28;20139;-57
2023/12/08 03:47:30;;;;;;;10.73;4.20;;;3.00;99.90;;;;;;5072227;28;20032;-54
2023/12/08 03:49:56;;;;;;;12.23;3.80;;;3.00;99.90;;;;;;5072077;28;20500;-54
2023/12/08 03:52:21;;;;;;;8.80;3.73;;;3.00;99.90;;;;;;5072194;28;20029;-56
2023/12/08 03:54:47;;;;;;;9.83;3.83;;;3.10;99.90;;;;;;5072198;28;20031;-56
2023/12/08 03:57:12;;;;;;;7.27;3.90;;;3.10;99.90;;;;;;5072230;28;20029;-55
2023/12/08 03:59:38;;;;;;;12.47;4.30;;;3.10;99.90;;;;;;5072151;28;20104;-56
2023/12/08 04:02:04;;;;;;;12.90;4.07;;;3.00;99.90;;;;;;5072009;28;20507;-56
2023/12/08 04:04:29;;;;;;;9.37;4.17;;;3.10;99.90;;;;;;5072112;28;20033;-53
2023/12/08 04:06:56;;;;;;;12.20;4.53;;;3.20;99.90;;;;;;5071839;28;20115;-56
2023/12/08 04:09:22;;;;;;;8.20;3.87;;;3.10;99.90;;;;;;5070547;28;20091;-56
2023/12/08 04:11:47;;;;;;;9.83;4.07;;;3.10;99.90;;;;;;5071826;28;20028;-56
2023/12/08 04:14:13;;;;;;;5.90;2.80;;;3.20;99.90;;;;;;5071974;28;20100;-56
2023/12/08 04:16:38;;;;;;;11.13;4.13;;;3.20;99.90;;;;;;5071732;28;20029;-56
2023/12/08 04:19:05;;;;;;;9.90;4.37;;;3.30;99.90;;;;;;5071744;28;20075;-57
2023/12/08 04:21:30;;;;;;;11.27;4.77;;;3.20;99.90;;;;;;5070569;28;20045;-56
2023/12/08 04:23:56;;;;;;;7.80;3.37;;;3.30;99.90;;;;;;5071272;28;20082;-56
2023/12/08 04:26:24;;;;;;;8.43;4.13;;;3.30;99.90;;;;;;5071713;28;20474;-56
2023/12/08 04:28:54;;;;;;;9.13;3.17;;;3.30;99.90;;;;;;5072474;28;20033;-55
2023/12/08 04:31:20;;;;;;;10.20;3.75;;;3.40;99.90;;;;;;5072033;28;20032;-54
2023/12/08 04:33:47;;;;;;;8.67;3.67;;;3.30;99.90;;;;;;5071792;28;20047;-56
2023/12/08 04:36:13;;;;;;;10.13;4.07;;;3.30;99.90;;;;;;5071546;28;20029;-56
2023/12/08 04:38:39;;;;;;;10.73;3.20;;;3.30;99.90;;;;;;5071604;28;20504;-56
2023/12/08 04:41:05;;;;;;;6.47;2.63;;;3.30;99.90;;;;;;5071649;28;20024;-54
2023/12/08 04:43:30;;;;;;;8.60;3.67;;;3.30;99.90;;;;;;5071688;28;20416;-53
2023/12/08 04:45:56;;;;;;;10.10;3.57;;;3.30;99.90;;;;;;5071555;28;20390;-55
2023/12/08 04:48:22;;;;;;;9.73;4.63;;;3.30;99.90;;;;;;5071410;28;20028;-56
2023/12/08 04:50:49;;;;;;;9.43;4.10;;;3.20;99.90;;;;;;5071374;28;20074;-55
2023/12/08 04:53:15;;;;;;;10.53;4.43;;;3.20;99.90;;;;;;5070273;28;20470;-56
2023/12/08 04:55:41;;;;;;;9.43;3.90;;;3.20;99.90;;;;;;5071444;28;20025;-55
2023/12/08 04:58:06;;;;;;;9.73;4.70;;;3.10;99.90;;;;;;5071611;28;20021;-54
2023/12/08 05:00:32;;;;;;;11.87;3.80;;;3.10;99.90;;;;;;5071638;28;20478;-56
2023/12/08 05:02:57;;;;;;;9.50;3.93;;;3.00;99.90;;;;;;5071554;28;20036;-56
2023/12/08 05:05:24;;;;;;;11.07;4.40;;;3.00;99.90;;;;;;5071346;28;20031;-56
2023/12/08 05:07:50;;;;;;;10.77;4.40;;;2.90;99.90;;;;;;5071533;28;20036;-55
2023/12/08 05:10:16;;;;;;;8.77;4.53;;;2.90;99.90;;;;;;5070196;28;20436;-54
2023/12/08 05:12:43;;;;;;;7.73;3.13;;;2.80;99.90;;;;;;5071483;28;20032;-54
2023/12/08 05:15:09;;;;;;;12.27;5.47;;;2.80;99.90;;;;;;5070144;28;20028;-53
2023/12/08 05:17:34;;;;;;;9.73;3.70;;;2.70;99.90;;;;;;5071445;28;20029;-56
2023/12/08 05:20:03;;;;;;;11.10;4.27;;;2.70;99.90;;;;;;5071718;28;20150;-55
2023/12/08 05:22:29;;;;;;;13.40;4.50;;;2.70;99.90;;;;;;5071437;28;20103;-55
2023/12/08 05:24:54;;;;;;;13.77;4.67;;;2.70;99.90;;;;;;5071361;28;20520;-56
2023/12/08 05:27:20;;;;;;;15.20;5.53;;;2.70;99.90;;;;;;5071347;28;20114;-55
2023/12/08 05:29:46;;;;;;;9.77;4.67;;;2.60;99.90;;;;;;5071243;28;20036;-56
2023/12/08 05:32:12;;;;;;;9.77;4.87;;;2.70;99.90;;;;;;5071178;28;20032;-55
2023/12/08 05:34:37;;;;;;;10.27;4.60;;;2.80;99.90;;;;;;5071178;28;20120;-55
2023/12/08 05:37:03;;;;;;;10.10;4.53;;;2.70;99.90;;;;;;5073933;28;20453;-55
2023/12/08 05:39:29;;;;;;;13.50;5.60;;;2.80;99.90;;;;;;5074910;28;20024;-55
2023/12/08 05:41:54;;;;;;;11.43;3.70;;;2.80;99.90;;;;;;5075036;28;20058;-56
2023/12/08 05:44:20;;;;;;;14.07;5.90;;;2.70;99.90;;;;;;5075022;28;20477;-56
2023/12/08 05:46:45;;;;;;;13.60;4.77;;;2.70;99.90;;;;;;5074534;28;20028;-55
2023/12/08 05:49:11;;;;;;;11.20;4.50;;;2.80;99.90;;;;;;5074468;28;20496;-55
2023/12/08 05:51:36;;;;;;;16.27;5.80;;;2.80;99.90;;;;;;5056654;28;20033;-55
2023/12/08 05:54:03;;;;;;;16.17;5.40;;;2.80;99.90;;;;;;5074815;28;20112;-56
2023/12/08 05:56:28;;;;;;;15.40;5.13;;;2.80;99.90;;;;;;5074632;28;20100;-56
2023/12/08 05:58:54;;;;;;;12.77;5.10;;;2.90;99.90;;;;;;5074598;28;20111;-56
2023/12/08 06:01:20;;;;;;;11.00;5.10;;;2.90;99.90;;;;;;5074386;28;20107;-55
2023/12/08 06:03:45;;;;;;;14.80;5.87;;;2.90;99.90;;;;;;5074363;28;20600;-55
2023/12/08 06:06:11;;;;;;;11.17;4.73;;;2.90;99.90;;;;;;5074230;28;20393;-54
2023/12/08 06:08:36;;;;;;;11.93;5.03;;;2.90;99.90;;;;;;5074371;28;20027;-54
2023/12/08 06:11:03;;;;;;;12.10;4.97;;;2.90;99.90;;;;;;5074205;28;20111;-55
2023/12/08 06:13:29;;;;;;;10.07;4.93;;;2.80;99.90;;;;;;5074092;28;20554;-56
2023/12/08 06:15:54;;;;;;;9.27;4.10;;;2.90;99.90;;;;;;5074085;28;20056;-55
2023/12/08 06:18:20;;;;;;;12.30;4.47;;;2.80;99.90;;;;;;5074147;28;20025;-55
2023/12/08 06:20:46;;;;;;;10.00;4.30;;;2.80;99.90;;;;;;5074004;28;20059;-52
2023/12/08 06:23:11;;;;;;;11.43;4.17;;;2.80;99.90;;;;;;5074136;28;20029;-55
2023/12/08 06:25:37;;;;;;;10.47;4.07;;;2.90;99.90;;;;;;5073758;28;20469;-54
2023/12/08 06:28:06;;;;;;;11.50;4.77;;;2.80;99.90;;;;;;5073835;28;20120;-56
2023/12/08 06:30:31;;;;;;;10.13;4.60;;;2.90;99.90;;;;;;5073570;28;20469;-56
2023/12/08 06:32:57;;;;;;;14.17;5.43;;;2.90;99.90;;;;;;5073755;28;20059;-51
2023/12/08 06:35:22;;;;;;;19.17;6.17;;;2.90;99.90;;;;;;5073726;28;20028;-51
2023/12/08 06:37:50;;;;;;;14.00;5.80;;;2.90;99.90;;;;;;5073583;28;20042;-56
2023/12/08 06:40:16;;;;;;;14.40;5.30;;;3.00;99.90;;;;;;5073715;28;20063;-56
2023/12/08 06:42:41;;;;;;;15.50;7.23;;;3.00;99.90;;;;;;5073570;28;20060;-56
2023/12/08 06:45:07;;;;;;;13.43;5.93;;;3.00;99.90;;;;;;5073455;28;20417;-55
2023/12/08 06:47:33;;;;;;;15.77;6.80;;;3.00;99.90;;;;;;5073005;28;20082;-56
2023/12/08 06:49:59;;;;;;;14.33;6.30;;;3.00;99.90;;;;;;5073430;28;20041;-56
2023/12/08 06:52:24;;;;;;;14.20;5.43;;;3.00;99.90;;;;;;5073374;28;20378;-57
2023/12/08 06:54:50;;;;;;;10.37;4.97;;;3.00;99.90;;;;;;5073383;28;20108;-54
2023/12/08 06:57:15;;;;;;;14.40;6.20;;;3.00;99.90;;;;;;5073322;28;20535;-56
2023/12/08 06:59:41;;;;;;;11.77;5.10;;;3.00;99.90;;;;;;5073162;28;20550;-56
2023/12/08 07:02:06;;;;;;;16.63;5.70;;;3.00;99.90;;;;;;5073045;28;20085;-56
2023/12/08 07:04:32;;;;;;;11.90;4.93;;;3.00;99.90;;;;;;5073258;28;20412;-57
2023/12/08 07:06:58;;;;;;;11.27;5.03;;;2.90;99.90;;;;;;5072986;28;20039;-52
2023/12/08 07:09:23;;;;;;;6.23;4.13;;;2.90;99.90;;;;;;5073015;28;20032;-53
2023/12/08 07:11:49;;;;;;;11.23;4.60;;;3.00;99.90;;;;;;5072841;28;20055;-54
2023/12/08 07:14:15;;;;;;;14.40;5.40;;;3.10;99.90;;;;;;5072968;28;20028;-56
2023/12/08 07:16:44;;;;;;;13.83;6.00;;;3.00;99.90;;;;;;5072698;28;20028;-55
2023/12/08 07:19:09;;;;;;;7.82;3.67;;;3.00;99.90;;;;;;5072834;28;20031;-52
2023/12/08 07:21:44;;;;;;;12.63;4.97;;;3.00;99.90;;;;;;5072828;28;20115;-52
2023/12/08 07:24:10;;;;;;;7.30;3.80;;;3.10;99.90;;;;;;5072839;28;20543;-53
2023/12/08 07:26:36;;;;;;;14.20;5.37;;;3.10;99.90;;;;;;5072588;28;20037;-56
2023/12/08 07:29:02;;;;;;;14.47;5.37;;;3.10;99.90;;;;;;5072472;28;20401;-52
2023/12/08 07:31:28;;;;;;;17.27;6.53;;;3.10;99.90;;;;;;5072418;28;20036;-56
2023/12/08 07:33:54;;;;;;;17.50;7.23;;;3.10;99.90;;;;;;5072460;28;20025;-56
2023/12/08 07:36:19;;;;;;;14.13;6.00;;;3.20;99.90;;;;;;5072521;28;20405;-56
2023/12/08 07:38:45;;;;;;;13.07;6.40;;;3.20;99.90;;;;;;5072737;28;20032;-56
2023/12/08 07:41:11;;;;;;;11.40;4.43;;;3.20;99.90;;;;;;5072372;28;20040;-56
2023/12/08 07:43:36;;;;;;;15.70;6.03;;;3.20;99.90;;;;;;5072367;28;20039;-55
2023/12/08 07:46:02;;;;;;;16.10;6.10;;;3.20;99.90;;;;;;5072680;28;20032;-55
2023/12/08 07:48:28;;;;;;;18.67;6.60;;;3.20;99.90;;;;;;5072256;28;20029;-54
2023/12/08 07:50:54;;;;;;;12.70;4.53;;;3.20;99.90;;;;;;5072261;28;20032;-56
2023/12/08 07:53:20;;;;;;;17.27;7.43;;;3.20;99.90;;;;;;5072375;28;20036;-55
2023/12/08 07:55:45;;;;;;;15.10;6.57;;;3.20;99.90;;;;;;5072358;28;20024;-56
2023/12/08 07:58:11;;;;;;;16.37;7.67;;;3.30;99.90;;;;;;5071976;28;20074;-52
2023/12/08 08:00:37;;;;;;;12.43;5.23;;;3.30;99.90;;;;;;5072700;28;20021;-54
2023/12/08 08:03:04;;;;;;;17.43;7.23;;;3.30;99.90;;;;;;5073347;28;20517;-56
2023/12/08 08:05:30;;;;;;;17.17;6.27;;;3.40;99.90;;;;;;5072837;28;20417;-53
2023/12/08 08:07:56;;;;;;;11.07;4.43;;;3.40;99.90;;;;;;5073246;28;20046;-54
2023/12/08 08:10:21;;;;;;;26.67;8.33;;;3.40;99.90;;;;;;5073471;28;20030;-54
2023/12/08 08:12:47;;;;;;;10.97;5.00;;;3.50;99.90;;;;;;5071798;28;20028;-56
2023/12/08 08:15:12;;;;;;;14.07;6.03;;;3.50;99.90;;;;;;5071747;28;20037;-56
2023/12/08 08:17:38;;;;;;;10.10;4.77;;;3.50;99.90;;;;;;5071835;28;20075;-56
2023/12/08 08:20:05;;;;;;;12.47;5.77;;;3.50;99.90;;;;;;5071636;28;20493;-56
2023/12/08 08:22:32;;;;;;;13.27;5.70;;;3.50;99.90;;;;;;5071938;28;20063;-53
2023/12/08 08:24:58;;;;;;;15.53;6.77;;;3.60;99.90;;;;;;5071679;28;20044;-57
2023/12/08 08:27:25;;;;;;;14.97;5.40;;;3.50;99.90;;;;;;5071943;28;20039;-56
2023/12/08 08:29:50;;;;;;;17.33;6.73;;;3.60;99.90;;;;;;5071566;28;20047;-62
2023/12/08 08:32:17;;;;;;;16.17;6.73;;;3.60;99.90;;;;;;5071693;28;20032;-56
2023/12/08 08:34:43;;;;;;;15.87;6.97;;;3.60;99.90;;;;;;5071852;28;20028;-55
2023/12/08 08:37:09;;;;;;;15.90;6.57;;;3.60;99.90;;;;;;5071669;28;20081;-54
2023/12/08 08:39:35;;;;;;;14.10;6.60;;;3.60;99.90;;;;;;5071540;28;20036;-55
2023/12/08 08:42:00;;;;;;;21.20;7.27;;;3.60;99.90;;;;;;5071593;28;20050;-56
2023/12/08 08:44:27;;;;;;;13.50;6.47;;;3.60;99.90;;;;;;5070739;28;20048;-56
2023/12/08 08:46:53;;;;;;;14.67;6.60;;;3.70;99.90;;;;;;5071483;28;20039;-57
2023/12/08 08:49:19;;;;;;;12.90;5.50;;;3.70;99.90;;;;;;5071854;28;20036;-57
2023/12/08 08:51:45;;;;;;;15.43;6.63;;;3.70;99.90;;;;;;5071528;28;20086;-56
2023/12/08 08:54:10;;;;;;;12.60;5.37;;;3.80;99.90;;;;;;5070250;28;20457;-55
2023/12/08 08:56:36;;;;;;;12.77;5.73;;;3.70;99.90;;;;;;5071485;28;20071;-57
2023/12/08 08:59:03;;;;;;;16.40;6.93;;;3.70;99.90;;;;;;5071432;28;20668;-57
2023/12/08 09:01:28;;;;;;;14.37;6.23;;;3.80;99.90;;;;;;5071797;28;20484;-56
2023/12/08 09:03:54;;;;;;;13.90;6.23;;;3.70;99.90;;;;;;5071596;28;20036;-56
2023/12/08 09:06:20;;;;;;;15.83;4.90;;;3.80;99.90;;;;;;5071365;28;20039;-56
2023/12/08 09:08:45;;;;;;;13.03;5.97;;;3.80;99.90;;;;;;5071441;28;20032;-56
2023/12/08 09:11:11;;;;;;;12.00;5.17;;;3.80;99.90;;;;;;5074793;28;20025;-56
2023/12/08 09:13:37;;;;;;;15.17;6.70;;;3.90;99.90;;;;;;5075624;28;20036;-57
2023/12/08 09:16:04;;;;;;;14.33;7.27;;;3.80;99.90;;;;;;5075139;28;20366;-57
2023/12/08 09:18:30;;;;;;;17.47;7.47;;;3.80;99.90;;;;;;5075037;28;20039;-55
2023/12/08 09:20:55;;;;;;;16.90;6.57;;;3.80;99.90;;;;;;5075216;28;20450;-57
2023/12/08 09:23:21;;;;;;;17.30;6.97;;;3.80;99.90;;;;;;5075126;28;20021;-57
2023/12/08 09:25:47;;;;;;;18.80;7.20;;;3.80;99.90;;;;;;5074951;28;20040;-57
2023/12/08 09:28:13;;;;;;;16.30;6.60;;;3.80;99.90;;;;;;5074755;28;20515;-53
2023/12/08 09:30:38;;;;;;;19.00;7.57;;;3.90;99.90;;;;;;5074804;28;20040;-55
2023/12/08 09:33:04;;;;;;;18.83;8.10;;;3.80;99.90;;;;;;5074742;28;20111;-56
2023/12/08 09:35:30;;;;;;;20.03;7.90;;;3.80;99.90;;;;;;5074715;28;20466;-54
2023/12/08 09:37:55;;;;;;;21.90;7.80;;;3.70;99.90;;;;;;5073584;28;20040;-55
2023/12/08 09:40:23;;;;;;;17.77;7.40;;;3.80;99.90;;;;;;5074650;28;20033;-57
2023/12/08 09:42:57;;;;;;;17.60;6.90;;;3.80;99.90;;;;;;5074814;28;20500;-53
2023/12/08 09:45:24;;;;;;;19.77;7.10;;;3.80;99.90;;;;;;5074580;28;20037;-57
2023/12/08 09:47:53;;;;;;;19.90;7.77;;;3.80;99.90;;;;;;5074540;28;20029;-56
2023/12/08 09:50:19;;;;;;;18.27;7.93;;;3.80;99.90;;;;;;5074491;28;20508;-56
2023/12/08 09:52:45;;;;;;;19.73;7.47;;;3.80;99.90;;;;;;5074595;28;20032;-56
2023/12/08 09:55:12;;;;;;;15.57;7.00;;;3.80;99.90;;;;;;5074313;28;20040;-54
2023/12/08 09:57:41;;;;;;;17.50;7.30;;;3.80;99.90;;;;;;5074309;28;20024;-57
2023/12/08 10:00:13;;;;;;;19.00;7.65;;;3.80;99.90;;;;;;5074245;28;20029;-53
2023/12/08 10:02:40;;;;;;;16.70;6.77;;;3.80;99.90;;;;;;5074680;28;20036;-56
2023/12/08 10:05:06;;;;;;;15.60;6.20;;;3.80;99.90;;;;;;5074942;28;20047;-56
2023/12/08 10:07:34;;;;;;;16.40;7.00;;;3.80;99.90;;;;;;5074147;28;20032;-56
2023/12/08 10:10:00;;;;;;;18.70;7.43;;;3.70;99.90;;;;;;5074447;28;20401;-55
2023/12/08 10:12:26;;;;;;;15.90;7.27;;;3.80;99.90;;;;;;5074101;28;20037;-57
2023/12/08 10:14:55;;;;;;;15.63;6.23;;;3.80;99.90;;;;;;5074218;28;20081;-56
2023/12/08 10:17:21;;;;;;;20.20;7.63;;;3.80;99.90;;;;;;5074272;28;20420;-57
2023/12/08 10:19:47;;;;;;;17.07;5.77;;;3.70;99.90;;;;;;5073880;28;20025;-56
2023/12/08 10:22:12;;;;;;;19.10;7.53;;;3.70;99.90;;;;;;5073067;28;20094;-57
2023/12/08 10:24:40;;;;;;;18.43;7.20;;;3.70;99.90;;;;;;5073943;28;20378;-57
2023/12/08 10:27:11;;;;;;;15.43;6.67;;;3.70;99.90;;;;;;5073988;28;20423;-54
2023/12/08 10:29:37;;;;;;;19.23;7.30;;;3.60;99.90;;;;;;5073866;28;20028;-57
2023/12/08 10:32:04;;;;;;;20.80;7.57;;;3.70;99.90;;;;;;5073716;28;20028;-57
2023/12/08 10:34:30;;;;;;;19.47;7.90;;;3.80;99.90;;;;;;5073771;28;20032;-57
2023/12/08 10:36:56;;;;;;;21.40;8.20;;;3.80;99.90;;;;;;5073682;28;20043;-57
2023/12/08 10:39:23;;;;;;;17.43;8.37;;;3.90;99.90;;;;;;5073607;28;20378;-56
2023/12/08 10:41:50;;;;;;;16.27;7.30;;;3.90;99.90;;;;;;5073585;28;20369;-56
2023/12/08 10:44:21;;;;;;;22.00;7.77;;;3.90;99.90;;;;;;5073674;28;20029;-55
2023/12/08 10:46:48;;;;;;;21.97;9.77;;;3.90;99.90;;;;;;5073527;28;20135;-56
2023/12/08 10:49:19;;;;;;;19.50;7.87;;;3.90;99.90;;;;;;5073438;28;20036;-56
2023/12/08 10:51:49;;;;;;;17.40;7.23;;;4.10;99.90;;;;;;5073433;28;20051;-54
2023/12/08 10:54:17;;;;;;;19.60;8.17;;;4.00;99.90;;;;;;5072257;28;20122;-54
2023/12/08 10:56:48;;;;;;;22.00;8.50;;;4.00;99.90;;;;;;5073283;28;20033;-57
2023/12/08 10:59:21;;;;;;;27.07;9.40;;;4.00;99.90;;;;;;5073266;28;20024;-56
2023/12/08 11:01:48;;;;;;;26.47;9.77;;;4.00;99.90;;;;;;5071970;28;20119;-55
2023/12/08 11:04:20;;;;;;;21.90;9.23;;;4.10;99.90;;;;;;5073141;28;20028;-56
2023/12/08 11:07:03;;;;;;;23.73;9.47;;;4.10;99.90;;;;;;5073116;28;20036;-55
2023/12/08 11:09:34;;;;;;;28.43;9.83;;;4.10;99.90;;;;;;5072980;28;20081;-56
2023/12/08 11:12:03;;;;;;;24.97;9.33;;;4.10;99.90;;;;;;5071972;28;20101;-55
2023/12/08 11:14:40;;;;;;;25.70;9.75;;;4.20;99.90;;;;;;5072990;28;20496;-57
2023/12/08 11:17:23;;;;;;;22.77;8.73;;;4.20;99.90;;;;;;5072893;28;20028;-57
2023/12/08 11:19:50;;;;;;;24.93;9.57;;;4.20;99.90;;;;;;5072893;28;20032;-57
2023/12/08 11:22:16;;;;;;;31.20;10.70;;;4.30;99.90;;;;;;5072927;28;20028;-57
2023/12/08 11:24:42;;;;;;;24.30;9.97;;;4.30;99.90;;;;;;5072782;28;20086;-56
2023/12/08 11:27:30;;;;;;;28.37;9.90;;;4.40;99.90;;;;;;5072605;28;20035;-54
2023/12/08 11:30:18;;;;;;;24.87;9.57;;;4.50;99.90;;;;;;5072743;28;20024;-56
2023/12/08 11:32:43;;;;;;;28.90;9.83;;;4.50;99.90;;;;;;5072679;28;20119;-56
2023/12/08 11:35:12;;;;;;;30.27;11.43;;;4.60;99.90;;;;;;5072332;28;20119;-56
2023/12/08 11:37:40;;;;;;;29.70;10.60;;;4.70;99.90;;;;;;5072364;28;20115;-56
2023/12/08 11:40:10;;;;;;;20.13;9.10;;;4.80;99.90;;;;;;5072269;28;20048;-53
2023/12/08 11:42:41;;;;;;;29.70;10.93;;;4.80;99.90;;;;;;5072416;28;20385;-56
2023/12/08 11:45:08;;;;;;;27.77;9.47;;;4.90;99.90;;;;;;5072385;28;20071;-56
2023/12/08 11:47:35;;;;;;;23.40;8.63;;;4.90;99.90;;;;;;5072275;28;20051;-57
2023/12/08 11:50:03;;;;;;;27.60;10.07;;;4.90;99.90;;;;;;5072231;28;20436;-56
2023/12/08 11:52:37;;;;;;;26.60;10.23;;;5.00;99.90;;;;;;5072356;28;20032;-56
2023/12/08 11:55:22;;;;;;;18.67;8.30;;;5.00;99.90;;;;;;5072134;28;20033;-56
2023/12/08 11:58:06;;;;;;;28.27;9.60;;;5.00;99.90;;;;;;5072282;28;20511;-56
2023/12/08 12:00:37;;;;;;;30.43;11.53;;;5.10;99.90;;;;;;5072139;28;20024;-56
2023/12/08 12:03:05;;;;;;;25.13;10.90;;;5.10;99.90;;;;;;5072228;28;20051;-56
2023/12/08 12:05:31;;;;;;;23.80;8.77;;;5.10;99.90;;;;;;5072103;28;20032;-56
2023/12/08 12:07:58;;;;;;;20.97;8.77;;;5.20;99.90;;;;;;5072159;28;20039;-56
2023/12/08 12:10:25;;;;;;;24.20;8.80;;;5.20;99.90;;;;;;5072055;28;20036;-55
2023/12/08 12:12:54;;;;;;;25.13;10.20;;;5.30;99.90;;;;;;5072259;28;20473;-56
2023/12/08 12:15:20;;;;;;;;;;;5.30;99.90;;;;;;5072671;28;20035;-55
2023/12/08 12:17:51;;;;;;;23.33;10.30;;;5.30;99.90;;;;;;5072007;28;20284;-54
2023/12/08 12:20:17;;;;;;;24.23;9.90;;;5.30;99.90;;;;;;5071792;28;20028;-55
2023/12/08 12:22:43;;;;;;;25.17;9.80;;;5.40;99.90;;;;;;5071986;28;20040;-55
2023/12/08 12:25:10;;;;;;;24.00;10.13;;;5.50;99.90;;;;;;5071817;28;20032;-56
2023/12/08 12:27:43;;;;;;;22.33;9.90;;;5.50;99.90;;;;;;5072058;28;20686;-55
2023/12/08 12:30:09;;;;;;;21.73;8.93;;;5.50;99.90;;;;;;5072172;28;20037;-55
2023/12/08 12:32:36;;;;;;;23.63;9.33;;;5.60;99.90;;;;;;5071780;28;20040;-55
2023/12/08 12:35:02;;;;;;;23.80;8.83;;;5.60;99.90;;;;;;5072087;28;20377;-52
2023/12/08 12:37:27;;;;;;;19.97;9.67;;;5.70;99.90;;;;;;5071668;28;20033;-54
2023/12/08 12:39:53;;;;;;;25.43;10.27;;;5.70;99.90;;;;;;5072046;28;20043;-56
2023/12/08 12:42:19;;;;;;;21.73;9.67;;;5.70;99.90;;;;;;5071874;28;20056;-55
2023/12/08 12:44:46;;;;;;;27.20;9.43;;;5.70;99.90;;;;;;5072608;28;20047;-56
2023/12/08 12:47:13;;;;;;;23.63;9.67;;;5.60;99.90;;;;;;5075853;28;20043;-56